sensor_id;sensor_type;location;lat;lon;timestamp;P1;durP1;ratioP1;P2;durP2;ratioP2
28519;SDS011;15732;48.534;20.382;2022-11-20T00:01:23;12.50;;;5.28;;
28519;SDS011;15732;48.534;20.382;2022-11-20T00:03:52;9.85;;;3.17;;
28519;SDS011;15732;48.534;20.382;2022-11-20T00:06:19;13.57;;;5.70;;
28519;SDS011;15732;48.534;20.382;2022-11-20T00:08:47;15.73;;;5.70;;
28519;SDS011;15732;48.534;20.382;2022-11-20T00:11:15;20.10;;;7.30;;
28519;SDS011;15732;48.534;20.382;2022-11-20T00:13:44;25.92;;;8.88;;
28519;SDS011;15732;48.534;20.382;2022-11-20T00:16:13;19.75;;;8.65;;
28519;SDS011;15732;48.534;20.382;2022-11-20T00:18:41;13.25;;;5.72;;
28519;SDS011;15732;48.534;20.382;2022-11-20T00:21:13;14.27;;;5.47;;
28519;SDS011;15732;48.534;20.382;2022-11-20T00:23:42;14.43;;;5.35;;
28519;SDS011;15732;48.534;20.382;2022-11-20T00:26:09;23.25;;;7.75;;
28519;SDS011;15732;48.534;20.382;2022-11-20T00:28:42;23.52;;;7.10;;
28519;SDS011;15732;48.534;20.382;2022-11-20T00:31:14;13.85;;;5.35;;
28519;SDS011;15732;48.534;20.382;2022-11-20T00:33:42;11.07;;;4.15;;
28519;SDS011;15732;48.534;20.382;2022-11-20T00:36:11;9.82;;;4.60;;
28519;SDS011;15732;48.534;20.382;2022-11-20T00:38:42;9.93;;;4.38;;
28519;SDS011;15732;48.534;20.382;2022-11-20T00:41:11;10.35;;;3.80;;
28519;SDS011;15732;48.534;20.382;2022-11-20T00:43:42;9.23;;;2.85;;
28519;SDS011;15732;48.534;20.382;2022-11-20T00:46:09;7.18;;;2.90;;
28519;SDS011;15732;48.534;20.382;2022-11-20T00:48:46;7.88;;;2.75;;
28519;SDS011;15732;48.534;20.382;2022-11-20T00:51:17;9.75;;;3.95;;
28519;SDS011;15732;48.534;20.382;2022-11-20T00:53:48;8.32;;;3.20;;
28519;SDS011;15732;48.534;20.382;2022-11-20T00:56:17;12.60;;;4.85;;
28519;SDS011;15732;48.534;20.382;2022-11-20T00:58:49;12.07;;;3.95;;
28519;SDS011;15732;48.534;20.382;2022-11-20T01:01:17;10.32;;;4.68;;
28519;SDS011;15732;48.534;20.382;2022-11-20T01:03:52;11.98;;;4.43;;
28519;SDS011;15732;48.534;20.382;2022-11-20T01:06:22;10.40;;;5.07;;
28519;SDS011;15732;48.534;20.382;2022-11-20T01:08:58;9.52;;;4.57;;
28519;SDS011;15732;48.534;20.382;2022-11-20T01:11:27;12.32;;;5.22;;
28519;SDS011;15732;48.534;20.382;2022-11-20T01:14:00;19.40;;;6.85;;
28519;SDS011;15732;48.534;20.382;2022-11-20T01:19:01;10.63;;;4.28;;
28519;SDS011;15732;48.534;20.382;2022-11-20T01:21:36;9.07;;;3.55;;
28519;SDS011;15732;48.534;20.382;2022-11-20T01:24:05;15.13;;;5.95;;
28519;SDS011;15732;48.534;20.382;2022-11-20T01:26:37;11.95;;;3.72;;
28519;SDS011;15732;48.534;20.382;2022-11-20T01:29:42;13.43;;;5.63;;
28519;SDS011;15732;48.534;20.382;2022-11-20T01:32:01;14.05;;;4.68;;
28519;SDS011;15732;48.534;20.382;2022-11-20T01:34:29;11.45;;;4.93;;
28519;SDS011;15732;48.534;20.382;2022-11-20T01:36:56;19.25;;;6.00;;
28519;SDS011;15732;48.534;20.382;2022-11-20T01:39:24;18.52;;;5.60;;
28519;SDS011;15732;48.534;20.382;2022-11-20T01:41:52;10.38;;;4.18;;
28519;SDS011;15732;48.534;20.382;2022-11-20T01:47:07;20.23;;;4.90;;
28519;SDS011;15732;48.534;20.382;2022-11-20T01:49:44;15.27;;;5.45;;
28519;SDS011;15732;48.534;20.382;2022-11-20T01:52:34;14.30;;;5.50;;
28519;SDS011;15732;48.534;20.382;2022-11-20T01:55:12;15.70;;;5.63;;
28519;SDS011;15732;48.534;20.382;2022-11-20T01:57:43;16.55;;;6.65;;
28519;SDS011;15732;48.534;20.382;2022-11-20T02:00:16;20.85;;;7.38;;
28519;SDS011;15732;48.534;20.382;2022-11-20T02:02:46;8.50;;;3.88;;
28519;SDS011;15732;48.534;20.382;2022-11-20T02:05:24;15.38;;;5.53;;
28519;SDS011;15732;48.534;20.382;2022-11-20T02:07:57;25.63;;;5.97;;
28519;SDS011;15732;48.534;20.382;2022-11-20T02:10:24;15.53;;;5.30;;
28519;SDS011;15732;48.534;20.382;2022-11-20T02:12:53;9.77;;;3.88;;
28519;SDS011;15732;48.534;20.382;2022-11-20T02:15:38;14.68;;;4.55;;
28519;SDS011;15732;48.534;20.382;2022-11-20T02:18:06;13.45;;;4.25;;
28519;SDS011;15732;48.534;20.382;2022-11-20T02:20:34;5.50;;;2.60;;
28519;SDS011;15732;48.534;20.382;2022-11-20T02:25:48;8.35;;;2.75;;
28519;SDS011;15732;48.534;20.382;2022-11-20T02:28:17;11.95;;;5.00;;
28519;SDS011;15732;48.534;20.382;2022-11-20T02:30:49;15.57;;;4.93;;
28519;SDS011;15732;48.534;20.382;2022-11-20T02:33:16;7.03;;;3.63;;
28519;SDS011;15732;48.534;20.382;2022-11-20T02:35:45;9.35;;;3.60;;
28519;SDS011;15732;48.534;20.382;2022-11-20T02:38:16;12.45;;;4.38;;
28519;SDS011;15732;48.534;20.382;2022-11-20T02:40:48;11.43;;;4.55;;
28519;SDS011;15732;48.534;20.382;2022-11-20T02:43:19;16.80;;;5.07;;
28519;SDS011;15732;48.534;20.382;2022-11-20T02:45:46;9.30;;;3.45;;
28519;SDS011;15732;48.534;20.382;2022-11-20T02:48:13;19.90;;;5.03;;
28519;SDS011;15732;48.534;20.382;2022-11-20T02:50:41;9.00;;;4.00;;
28519;SDS011;15732;48.534;20.382;2022-11-20T02:53:08;9.65;;;4.88;;
28519;SDS011;15732;48.534;20.382;2022-11-20T02:55:35;13.57;;;4.30;;
28519;SDS011;15732;48.534;20.382;2022-11-20T02:58:02;8.77;;;4.53;;
28519;SDS011;15732;48.534;20.382;2022-11-20T03:00:33;15.40;;;5.93;;
28519;SDS011;15732;48.534;20.382;2022-11-20T03:03:01;15.75;;;4.47;;
28519;SDS011;15732;48.534;20.382;2022-11-20T03:05:28;9.75;;;4.28;;
28519;SDS011;15732;48.534;20.382;2022-11-20T03:07:59;8.35;;;4.40;;
28519;SDS011;15732;48.534;20.382;2022-11-20T03:10:27;10.80;;;4.40;;
28519;SDS011;15732;48.534;20.382;2022-11-20T03:12:54;11.07;;;3.05;;
28519;SDS011;15732;48.534;20.382;2022-11-20T03:15:25;9.15;;;4.53;;
28519;SDS011;15732;48.534;20.382;2022-11-20T03:17:53;9.80;;;3.72;;
28519;SDS011;15732;48.534;20.382;2022-11-20T03:20:21;9.80;;;4.13;;
28519;SDS011;15732;48.534;20.382;2022-11-20T03:22:48;7.60;;;3.75;;
28519;SDS011;15732;48.534;20.382;2022-11-20T03:25:19;7.53;;;3.55;;
28519;SDS011;15732;48.534;20.382;2022-11-20T03:27:46;13.20;;;4.20;;
28519;SDS011;15732;48.534;20.382;2022-11-20T03:30:13;11.20;;;4.13;;
28519;SDS011;15732;48.534;20.382;2022-11-20T03:32:41;11.52;;;3.83;;
28519;SDS011;15732;48.534;20.382;2022-11-20T03:35:12;12.50;;;4.22;;
28519;SDS011;15732;48.534;20.382;2022-11-20T03:37:39;8.30;;;3.78;;
28519;SDS011;15732;48.534;20.382;2022-11-20T03:40:07;14.80;;;3.80;;
28519;SDS011;15732;48.534;20.382;2022-11-20T03:42:36;12.63;;;3.67;;
28519;SDS011;15732;48.534;20.382;2022-11-20T03:45:13;10.45;;;4.32;;
28519;SDS011;15732;48.534;20.382;2022-11-20T03:50:08;12.85;;;4.32;;
28519;SDS011;15732;48.534;20.382;2022-11-20T03:52:38;8.65;;;3.95;;
28519;SDS011;15732;48.534;20.382;2022-11-20T03:55:09;14.23;;;3.67;;
28519;SDS011;15732;48.534;20.382;2022-11-20T03:57:36;12.52;;;3.97;;
28519;SDS011;15732;48.534;20.382;2022-11-20T04:00:04;19.27;;;4.50;;
28519;SDS011;15732;48.534;20.382;2022-11-20T04:04:59;11.23;;;3.53;;
28519;SDS011;15732;48.534;20.382;2022-11-20T04:07:26;10.93;;;4.55;;
28519;SDS011;15732;48.534;20.382;2022-11-20T04:09:58;12.88;;;3.95;;
28519;SDS011;15732;48.534;20.382;2022-11-20T04:12:25;9.27;;;4.65;;
28519;SDS011;15732;48.534;20.382;2022-11-20T04:14:52;8.25;;;4.57;;
28519;SDS011;15732;48.534;20.382;2022-11-20T04:17:20;9.93;;;3.88;;
28519;SDS011;15732;48.534;20.382;2022-11-20T04:19:47;8.57;;;3.75;;
28519;SDS011;15732;48.534;20.382;2022-11-20T04:22:14;11.00;;;3.53;;
28519;SDS011;15732;48.534;20.382;2022-11-20T04:24:42;15.73;;;5.45;;
28519;SDS011;15732;48.534;20.382;2022-11-20T04:27:09;27.48;;;5.22;;
28519;SDS011;15732;48.534;20.382;2022-11-20T04:29:36;29.58;;;11.70;;
28519;SDS011;15732;48.534;20.382;2022-11-20T04:32:04;22.88;;;5.53;;
28519;SDS011;15732;48.534;20.382;2022-11-20T04:34:31;19.17;;;5.03;;
28519;SDS011;15732;48.534;20.382;2022-11-20T04:36:59;21.02;;;7.97;;
28519;SDS011;15732;48.534;20.382;2022-11-20T04:39:30;27.45;;;11.40;;
28519;SDS011;15732;48.534;20.382;2022-11-20T04:41:57;42.50;;;14.15;;
28519;SDS011;15732;48.534;20.382;2022-11-20T04:44:43;23.58;;;8.80;;
28519;SDS011;15732;48.534;20.382;2022-11-20T04:47:14;13.95;;;5.55;;
28519;SDS011;15732;48.534;20.382;2022-11-20T04:49:41;8.82;;;3.80;;
28519;SDS011;15732;48.534;20.382;2022-11-20T04:52:13;10.30;;;3.78;;
28519;SDS011;15732;48.534;20.382;2022-11-20T04:54:44;9.93;;;4.32;;
28519;SDS011;15732;48.534;20.382;2022-11-20T04:57:12;11.73;;;4.28;;
28519;SDS011;15732;48.534;20.382;2022-11-20T04:59:40;10.30;;;3.72;;
28519;SDS011;15732;48.534;20.382;2022-11-20T05:02:07;8.65;;;4.13;;
28519;SDS011;15732;48.534;20.382;2022-11-20T05:04:38;10.73;;;3.40;;
28519;SDS011;15732;48.534;20.382;2022-11-20T05:07:05;12.07;;;3.15;;
28519;SDS011;15732;48.534;20.382;2022-11-20T05:09:36;8.43;;;3.30;;
28519;SDS011;15732;48.534;20.382;2022-11-20T05:12:03;14.00;;;5.63;;
28519;SDS011;15732;48.534;20.382;2022-11-20T05:14:37;12.38;;;4.72;;
28519;SDS011;15732;48.534;20.382;2022-11-20T05:17:04;12.18;;;4.22;;
28519;SDS011;15732;48.534;20.382;2022-11-20T05:19:35;10.05;;;4.18;;
28519;SDS011;15732;48.534;20.382;2022-11-20T05:22:03;13.30;;;4.93;;
28519;SDS011;15732;48.534;20.382;2022-11-20T05:24:31;10.23;;;3.78;;
28519;SDS011;15732;48.534;20.382;2022-11-20T05:26:58;9.88;;;3.83;;
28519;SDS011;15732;48.534;20.382;2022-11-20T05:29:29;9.70;;;3.22;;
28519;SDS011;15732;48.534;20.382;2022-11-20T05:31:57;10.05;;;3.90;;
28519;SDS011;15732;48.534;20.382;2022-11-20T05:34:28;8.52;;;4.75;;
28519;SDS011;15732;48.534;20.382;2022-11-20T05:36:59;8.07;;;4.90;;
28519;SDS011;15732;48.534;20.382;2022-11-20T05:39:26;10.68;;;4.80;;
28519;SDS011;15732;48.534;20.382;2022-11-20T05:41:53;18.25;;;4.88;;
28519;SDS011;15732;48.534;20.382;2022-11-20T05:44:42;7.90;;;3.33;;
28519;SDS011;15732;48.534;20.382;2022-11-20T05:47:13;12.65;;;4.63;;
28519;SDS011;15732;48.534;20.382;2022-11-20T05:49:40;12.68;;;4.68;;
28519;SDS011;15732;48.534;20.382;2022-11-20T05:52:08;7.40;;;3.47;;
28519;SDS011;15732;48.534;20.382;2022-11-20T05:54:38;15.48;;;4.88;;
28519;SDS011;15732;48.534;20.382;2022-11-20T05:57:05;10.23;;;3.85;;
28519;SDS011;15732;48.534;20.382;2022-11-20T05:59:33;10.23;;;3.47;;
28519;SDS011;15732;48.534;20.382;2022-11-20T06:02:00;8.13;;;4.05;;
28519;SDS011;15732;48.534;20.382;2022-11-20T06:04:28;10.70;;;3.55;;
28519;SDS011;15732;48.534;20.382;2022-11-20T06:06:55;8.27;;;3.55;;
28519;SDS011;15732;48.534;20.382;2022-11-20T06:09:22;14.52;;;3.97;;
28519;SDS011;15732;48.534;20.382;2022-11-20T06:11:49;6.53;;;3.30;;
28519;SDS011;15732;48.534;20.382;2022-11-20T06:14:20;23.75;;;11.40;;
28519;SDS011;15732;48.534;20.382;2022-11-20T06:16:46;32.97;;;12.48;;
28519;SDS011;15732;48.534;20.382;2022-11-20T06:19:14;30.05;;;13.57;;
28519;SDS011;15732;48.534;20.382;2022-11-20T06:21:41;18.90;;;7.90;;
28519;SDS011;15732;48.534;20.382;2022-11-20T06:24:09;15.10;;;7.82;;
28519;SDS011;15732;48.534;20.382;2022-11-20T06:26:37;14.63;;;6.20;;
28519;SDS011;15732;48.534;20.382;2022-11-20T06:29:04;26.13;;;9.88;;
28519;SDS011;15732;48.534;20.382;2022-11-20T06:31:31;29.88;;;7.70;;
28519;SDS011;15732;48.534;20.382;2022-11-20T06:34:00;37.92;;;10.18;;
28519;SDS011;15732;48.534;20.382;2022-11-20T06:36:32;39.00;;;11.15;;
28519;SDS011;15732;48.534;20.382;2022-11-20T06:38:59;18.13;;;7.25;;
28519;SDS011;15732;48.534;20.382;2022-11-20T06:41:26;13.68;;;5.53;;
28519;SDS011;15732;48.534;20.382;2022-11-20T06:43:53;27.15;;;6.72;;
28519;SDS011;15732;48.534;20.382;2022-11-20T06:46:21;12.38;;;4.72;;
28519;SDS011;15732;48.534;20.382;2022-11-20T06:48:48;13.02;;;5.20;;
28519;SDS011;15732;48.534;20.382;2022-11-20T06:51:16;11.57;;;5.47;;
28519;SDS011;15732;48.534;20.382;2022-11-20T06:53:47;9.35;;;4.38;;
28519;SDS011;15732;48.534;20.382;2022-11-20T06:56:14;11.73;;;5.28;;
28519;SDS011;15732;48.534;20.382;2022-11-20T06:58:41;11.80;;;4.78;;
28519;SDS011;15732;48.534;20.382;2022-11-20T07:01:09;8.15;;;4.03;;
28519;SDS011;15732;48.534;20.382;2022-11-20T07:03:37;15.90;;;4.60;;
28519;SDS011;15732;48.534;20.382;2022-11-20T07:06:04;11.93;;;4.00;;
28519;SDS011;15732;48.534;20.382;2022-11-20T07:08:32;7.82;;;4.03;;
28519;SDS011;15732;48.534;20.382;2022-11-20T07:10:59;13.85;;;4.15;;
28519;SDS011;15732;48.534;20.382;2022-11-20T07:13:27;9.45;;;3.83;;
28519;SDS011;15732;48.534;20.382;2022-11-20T07:15:58;8.65;;;3.05;;
28519;SDS011;15732;48.534;20.382;2022-11-20T07:18:26;10.25;;;3.78;;
28519;SDS011;15732;48.534;20.382;2022-11-20T07:20:53;8.73;;;3.55;;
28519;SDS011;15732;48.534;20.382;2022-11-20T07:23:24;13.93;;;3.90;;
28519;SDS011;15732;48.534;20.382;2022-11-20T07:25:51;16.77;;;4.25;;
28519;SDS011;15732;48.534;20.382;2022-11-20T07:28:19;9.93;;;4.53;;
28519;SDS011;15732;48.534;20.382;2022-11-20T07:30:51;8.52;;;3.50;;
28519;SDS011;15732;48.534;20.382;2022-11-20T07:33:18;10.90;;;4.25;;
28519;SDS011;15732;48.534;20.382;2022-11-20T07:35:46;7.93;;;3.80;;
28519;SDS011;15732;48.534;20.382;2022-11-20T07:38:13;8.07;;;3.63;;
28519;SDS011;15732;48.534;20.382;2022-11-20T07:40:41;6.75;;;3.15;;
28519;SDS011;15732;48.534;20.382;2022-11-20T07:43:08;7.28;;;3.42;;
28519;SDS011;15732;48.534;20.382;2022-11-20T07:45:39;10.63;;;4.45;;
28519;SDS011;15732;48.534;20.382;2022-11-20T07:48:06;10.52;;;3.80;;
28519;SDS011;15732;48.534;20.382;2022-11-20T07:50:34;9.13;;;4.35;;
28519;SDS011;15732;48.534;20.382;2022-11-20T07:53:02;15.82;;;5.32;;
28519;SDS011;15732;48.534;20.382;2022-11-20T07:55:30;9.68;;;4.15;;
28519;SDS011;15732;48.534;20.382;2022-11-20T07:57:58;7.80;;;2.70;;
28519;SDS011;15732;48.534;20.382;2022-11-20T08:00:25;20.65;;;4.63;;
28519;SDS011;15732;48.534;20.382;2022-11-20T08:02:52;12.98;;;4.65;;
28519;SDS011;15732;48.534;20.382;2022-11-20T08:05:19;13.13;;;3.58;;
28519;SDS011;15732;48.534;20.382;2022-11-20T08:07:47;12.65;;;5.10;;
28519;SDS011;15732;48.534;20.382;2022-11-20T08:10:15;13.15;;;4.35;;
28519;SDS011;15732;48.534;20.382;2022-11-20T08:12:46;10.10;;;3.20;;
28519;SDS011;15732;48.534;20.382;2022-11-20T08:15:31;7.57;;;3.25;;
28519;SDS011;15732;48.534;20.382;2022-11-20T08:18:00;10.63;;;4.10;;
28519;SDS011;15732;48.534;20.382;2022-11-20T08:22:58;9.20;;;3.35;;
28519;SDS011;15732;48.534;20.382;2022-11-20T08:25:27;15.13;;;4.70;;
28519;SDS011;15732;48.534;20.382;2022-11-20T08:27:56;12.68;;;4.85;;
28519;SDS011;15732;48.534;20.382;2022-11-20T08:30:28;22.65;;;4.22;;
28519;SDS011;15732;48.534;20.382;2022-11-20T08:32:59;9.80;;;4.70;;
28519;SDS011;15732;48.534;20.382;2022-11-20T08:35:32;18.38;;;4.30;;
28519;SDS011;15732;48.534;20.382;2022-11-20T08:38:01;7.30;;;3.13;;
28519;SDS011;15732;48.534;20.382;2022-11-20T08:40:28;9.95;;;3.67;;
28519;SDS011;15732;48.534;20.382;2022-11-20T08:43:00;11.88;;;4.13;;
28519;SDS011;15732;48.534;20.382;2022-11-20T08:45:27;13.45;;;4.88;;
28519;SDS011;15732;48.534;20.382;2022-11-20T08:47:59;5.70;;;2.88;;
28519;SDS011;15732;48.534;20.382;2022-11-20T08:50:26;14.07;;;4.28;;
28519;SDS011;15732;48.534;20.382;2022-11-20T08:52:54;9.82;;;4.13;;
28519;SDS011;15732;48.534;20.382;2022-11-20T08:55:21;11.13;;;4.20;;
28519;SDS011;15732;48.534;20.382;2022-11-20T08:57:48;12.30;;;4.72;;
28519;SDS011;15732;48.534;20.382;2022-11-20T09:00:16;14.60;;;4.22;;
28519;SDS011;15732;48.534;20.382;2022-11-20T09:02:44;14.70;;;4.50;;
28519;SDS011;15732;48.534;20.382;2022-11-20T09:05:12;16.20;;;3.05;;
28519;SDS011;15732;48.534;20.382;2022-11-20T09:07:39;10.77;;;3.90;;
28519;SDS011;15732;48.534;20.382;2022-11-20T09:10:08;6.53;;;3.17;;
28519;SDS011;15732;48.534;20.382;2022-11-20T09:12:35;7.45;;;2.85;;
28519;SDS011;15732;48.534;20.382;2022-11-20T09:15:07;10.88;;;3.83;;
28519;SDS011;15732;48.534;20.382;2022-11-20T09:17:35;11.10;;;4.90;;
28519;SDS011;15732;48.534;20.382;2022-11-20T09:20:02;11.25;;;4.63;;
28519;SDS011;15732;48.534;20.382;2022-11-20T09:22:32;9.32;;;3.65;;
28519;SDS011;15732;48.534;20.382;2022-11-20T09:24:59;10.13;;;3.70;;
28519;SDS011;15732;48.534;20.382;2022-11-20T09:27:26;9.85;;;4.72;;
28519;SDS011;15732;48.534;20.382;2022-11-20T09:29:53;14.70;;;4.97;;
28519;SDS011;15732;48.534;20.382;2022-11-20T09:32:21;18.13;;;6.03;;
28519;SDS011;15732;48.534;20.382;2022-11-20T09:34:48;13.30;;;4.47;;
28519;SDS011;15732;48.534;20.382;2022-11-20T09:37:19;13.15;;;5.50;;
28519;SDS011;15732;48.534;20.382;2022-11-20T09:39:47;8.68;;;4.03;;
28519;SDS011;15732;48.534;20.382;2022-11-20T09:42:17;10.38;;;4.13;;
28519;SDS011;15732;48.534;20.382;2022-11-20T09:45:18;11.98;;;5.60;;
28519;SDS011;15732;48.534;20.382;2022-11-20T09:53:26;15.50;;;6.20;;
28519;SDS011;15732;48.534;20.382;2022-11-20T09:56:19;12.27;;;4.32;;
28519;SDS011;15732;48.534;20.382;2022-11-20T09:58:50;16.52;;;6.13;;
28519;SDS011;15732;48.534;20.382;2022-11-20T10:01:21;17.13;;;5.57;;
28519;SDS011;15732;48.534;20.382;2022-11-20T10:06:41;22.95;;;7.65;;
28519;SDS011;15732;48.534;20.382;2022-11-20T10:09:34;12.40;;;4.35;;
28519;SDS011;15732;48.534;20.382;2022-11-20T10:15:05;22.30;;;7.75;;
28519;SDS011;15732;48.534;20.382;2022-11-20T10:22:48;15.48;;;6.40;;
28519;SDS011;15732;48.534;20.382;2022-11-20T10:25:56;18.55;;;6.50;;
28519;SDS011;15732;48.534;20.382;2022-11-20T10:31:25;19.05;;;8.38;;
28519;SDS011;15732;48.534;20.382;2022-11-20T10:33:57;14.55;;;5.75;;
28519;SDS011;15732;48.534;20.382;2022-11-20T10:36:34;15.82;;;6.47;;
28519;SDS011;15732;48.534;20.382;2022-11-20T10:39:23;14.38;;;5.53;;
28519;SDS011;15732;48.534;20.382;2022-11-20T10:42:02;9.30;;;3.63;;
28519;SDS011;15732;48.534;20.382;2022-11-20T10:44:37;15.25;;;5.07;;
28519;SDS011;15732;48.534;20.382;2022-11-20T10:47:27;11.95;;;2.85;;
28519;SDS011;15732;48.534;20.382;2022-11-20T10:49:57;12.23;;;3.47;;
28519;SDS011;15732;48.534;20.382;2022-11-20T10:55:12;14.18;;;4.30;;
28519;SDS011;15732;48.534;20.382;2022-11-20T10:58:14;15.48;;;5.10;;
28519;SDS011;15732;48.534;20.382;2022-11-20T11:01:13;17.80;;;4.20;;
28519;SDS011;15732;48.534;20.382;2022-11-20T11:03:45;10.52;;;4.22;;
28519;SDS011;15732;48.534;20.382;2022-11-20T11:06:21;14.23;;;4.50;;
28519;SDS011;15732;48.534;20.382;2022-11-20T11:09:01;8.75;;;3.67;;
28519;SDS011;15732;48.534;20.382;2022-11-20T11:11:33;10.07;;;4.00;;
28519;SDS011;15732;48.534;20.382;2022-11-20T11:14:04;17.10;;;8.90;;
28519;SDS011;15732;48.534;20.382;2022-11-20T11:16:51;10.75;;;4.75;;
28519;SDS011;15732;48.534;20.382;2022-11-20T11:19:19;9.40;;;3.83;;
28519;SDS011;15732;48.534;20.382;2022-11-20T11:21:50;13.25;;;3.90;;
28519;SDS011;15732;48.534;20.382;2022-11-20T11:24:23;10.15;;;3.28;;
28519;SDS011;15732;48.534;20.382;2022-11-20T11:29:30;8.18;;;3.53;;
28519;SDS011;15732;48.534;20.382;2022-11-20T11:32:05;12.57;;;3.50;;
28519;SDS011;15732;48.534;20.382;2022-11-20T11:34:38;13.48;;;3.95;;
28519;SDS011;15732;48.534;20.382;2022-11-20T11:37:09;7.70;;;3.10;;
28519;SDS011;15732;48.534;20.382;2022-11-20T11:39:49;13.60;;;3.45;;
28519;SDS011;15732;48.534;20.382;2022-11-20T11:42:21;9.50;;;3.60;;
28519;SDS011;15732;48.534;20.382;2022-11-20T11:44:49;12.77;;;3.90;;
28519;SDS011;15732;48.534;20.382;2022-11-20T11:57:50;9.05;;;3.22;;
28519;SDS011;15732;48.534;20.382;2022-11-20T12:00:27;6.78;;;2.28;;
28519;SDS011;15732;48.534;20.382;2022-11-20T12:03:12;10.32;;;3.58;;
28519;SDS011;15732;48.534;20.382;2022-11-20T12:05:47;9.75;;;4.05;;
28519;SDS011;15732;48.534;20.382;2022-11-20T12:08:36;7.00;;;2.92;;
28519;SDS011;15732;48.534;20.382;2022-11-20T12:11:14;13.57;;;4.43;;
28519;SDS011;15732;48.534;20.382;2022-11-20T12:14:23;7.72;;;3.60;;
28519;SDS011;15732;48.534;20.382;2022-11-20T12:17:00;10.80;;;3.90;;
28519;SDS011;15732;48.534;20.382;2022-11-20T12:19:33;9.90;;;3.55;;
28519;SDS011;15732;48.534;20.382;2022-11-20T12:22:06;5.90;;;3.13;;
28519;SDS011;15732;48.534;20.382;2022-11-20T12:25:22;11.35;;;4.13;;
28519;SDS011;15732;48.534;20.382;2022-11-20T12:31:13;9.77;;;4.00;;
28519;SDS011;15732;48.534;20.382;2022-11-20T12:36:32;9.77;;;4.30;;
28519;SDS011;15732;48.534;20.382;2022-11-20T13:04:55;9.95;;;2.92;;
28519;SDS011;15732;48.534;20.382;2022-11-20T13:10:03;9.30;;;3.45;;
28519;SDS011;15732;48.534;20.382;2022-11-20T13:12:46;8.45;;;3.67;;
28519;SDS011;15732;48.534;20.382;2022-11-20T13:15:50;5.45;;;3.17;;
28519;SDS011;15732;48.534;20.382;2022-11-20T13:18:25;9.57;;;3.40;;
28519;SDS011;15732;48.534;20.382;2022-11-20T13:20:53;12.13;;;3.47;;
28519;SDS011;15732;48.534;20.382;2022-11-20T13:23:24;10.85;;;5.15;;
28519;SDS011;15732;48.534;20.382;2022-11-20T13:26:04;7.70;;;3.03;;
28519;SDS011;15732;48.534;20.382;2022-11-20T13:28:45;12.68;;;4.88;;
28519;SDS011;15732;48.534;20.382;2022-11-20T13:31:32;10.88;;;3.50;;
28519;SDS011;15732;48.534;20.382;2022-11-20T13:34:05;13.52;;;7.00;;
28519;SDS011;15732;48.534;20.382;2022-11-20T13:36:37;14.48;;;7.03;;
28519;SDS011;15732;48.534;20.382;2022-11-20T13:41:57;12.20;;;5.20;;
28519;SDS011;15732;48.534;20.382;2022-11-20T13:44:48;14.90;;;6.32;;
28519;SDS011;15732;48.534;20.382;2022-11-20T13:47:26;13.07;;;4.20;;
28519;SDS011;15732;48.534;20.382;2022-11-20T13:49:58;15.25;;;6.35;;
28519;SDS011;15732;48.534;20.382;2022-11-20T13:55:23;13.75;;;5.47;;
28519;SDS011;15732;48.534;20.382;2022-11-20T14:01:22;22.58;;;8.45;;
28519;SDS011;15732;48.534;20.382;2022-11-20T14:03:52;19.20;;;8.23;;
28519;SDS011;15732;48.534;20.382;2022-11-20T14:06:26;34.65;;;12.82;;
28519;SDS011;15732;48.534;20.382;2022-11-20T14:11:26;19.75;;;7.57;;
28519;SDS011;15732;48.534;20.382;2022-11-20T14:19:23;20.73;;;8.43;;
28519;SDS011;15732;48.534;20.382;2022-11-20T14:24:33;27.52;;;10.07;;
28519;SDS011;15732;48.534;20.382;2022-11-20T14:27:04;25.60;;;7.82;;
28519;SDS011;15732;48.534;20.382;2022-11-20T14:29:34;58.95;;;20.08;;
28519;SDS011;15732;48.534;20.382;2022-11-20T14:32:03;55.28;;;25.05;;
28519;SDS011;15732;48.534;20.382;2022-11-20T14:34:32;47.50;;;18.95;;
28519;SDS011;15732;48.534;20.382;2022-11-20T14:37:04;53.00;;;18.55;;
28519;SDS011;15732;48.534;20.382;2022-11-20T14:39:33;33.53;;;13.88;;
28519;SDS011;15732;48.534;20.382;2022-11-20T14:42:17;27.45;;;11.27;;
28519;SDS011;15732;48.534;20.382;2022-11-20T14:44:57;27.10;;;11.73;;
28519;SDS011;15732;48.534;20.382;2022-11-20T14:47:25;32.58;;;10.07;;
28519;SDS011;15732;48.534;20.382;2022-11-20T14:49:57;21.73;;;7.82;;
28519;SDS011;15732;48.534;20.382;2022-11-20T14:52:26;18.35;;;6.82;;
28519;SDS011;15732;48.534;20.382;2022-11-20T14:54:59;20.10;;;6.88;;
28519;SDS011;15732;48.534;20.382;2022-11-20T14:57:31;21.97;;;8.60;;
28519;SDS011;15732;48.534;20.382;2022-11-20T15:05:10;25.63;;;8.75;;
28519;SDS011;15732;48.534;20.382;2022-11-20T15:07:40;14.90;;;6.20;;
28519;SDS011;15732;48.534;20.382;2022-11-20T15:10:13;17.52;;;8.35;;
28519;SDS011;15732;48.534;20.382;2022-11-20T15:12:54;27.15;;;7.93;;
28519;SDS011;15732;48.534;20.382;2022-11-20T15:17:55;16.58;;;5.60;;
28519;SDS011;15732;48.534;20.382;2022-11-20T15:20:27;21.50;;;6.70;;
28519;SDS011;15732;48.534;20.382;2022-11-20T15:22:57;29.90;;;8.30;;
28519;SDS011;15732;48.534;20.382;2022-11-20T15:25:24;15.70;;;7.60;;
28519;SDS011;15732;48.534;20.382;2022-11-20T15:27:54;12.35;;;5.40;;
28519;SDS011;15732;48.534;20.382;2022-11-20T15:30:22;17.30;;;5.32;;
28519;SDS011;15732;48.534;20.382;2022-11-20T15:32:50;15.65;;;5.05;;
28519;SDS011;15732;48.534;20.382;2022-11-20T15:35:20;25.15;;;8.65;;
28519;SDS011;15732;48.534;20.382;2022-11-20T15:37:46;19.48;;;5.95;;
28519;SDS011;15732;48.534;20.382;2022-11-20T15:40:15;17.77;;;8.73;;
28519;SDS011;15732;48.534;20.382;2022-11-20T15:42:42;15.95;;;7.13;;
28519;SDS011;15732;48.534;20.382;2022-11-20T15:45:28;27.35;;;7.22;;
28519;SDS011;15732;48.534;20.382;2022-11-20T15:47:59;24.25;;;7.80;;
28519;SDS011;15732;48.534;20.382;2022-11-20T15:50:27;12.77;;;6.55;;
28519;SDS011;15732;48.534;20.382;2022-11-20T15:53:09;39.67;;;11.82;;
28519;SDS011;15732;48.534;20.382;2022-11-20T15:55:37;67.00;;;24.92;;
28519;SDS011;15732;48.534;20.382;2022-11-20T15:58:06;59.20;;;24.92;;
28519;SDS011;15732;48.534;20.382;2022-11-20T16:00:33;81.75;;;31.77;;
28519;SDS011;15732;48.534;20.382;2022-11-20T16:03:04;107.18;;;38.17;;
28519;SDS011;15732;48.534;20.382;2022-11-20T16:05:38;46.03;;;19.42;;
28519;SDS011;15732;48.534;20.382;2022-11-20T16:08:05;28.58;;;11.25;;
28519;SDS011;15732;48.534;20.382;2022-11-20T16:10:32;29.27;;;10.75;;
28519;SDS011;15732;48.534;20.382;2022-11-20T16:13:01;28.00;;;10.88;;
28519;SDS011;15732;48.534;20.382;2022-11-20T16:15:50;33.20;;;10.55;;
28519;SDS011;15732;48.534;20.382;2022-11-20T16:18:22;31.05;;;14.13;;
28519;SDS011;15732;48.534;20.382;2022-11-20T16:20:51;90.55;;;29.50;;
28519;SDS011;15732;48.534;20.382;2022-11-20T16:25:46;92.07;;;26.73;;
28519;SDS011;15732;48.534;20.382;2022-11-20T16:28:14;51.22;;;20.20;;
28519;SDS011;15732;48.534;20.382;2022-11-20T16:30:41;36.08;;;13.05;;
28519;SDS011;15732;48.534;20.382;2022-11-20T16:33:11;28.90;;;9.57;;
28519;SDS011;15732;48.534;20.382;2022-11-20T16:35:39;35.65;;;11.07;;
28519;SDS011;15732;48.534;20.382;2022-11-20T16:38:07;27.08;;;11.27;;
28519;SDS011;15732;48.534;20.382;2022-11-20T16:40:34;29.65;;;10.70;;
28519;SDS011;15732;48.534;20.382;2022-11-20T16:43:06;18.10;;;7.47;;